Candor, North Carolina
Current Conditions -  °F | °C
As of 8:55 PM on Monday 24 Nov 2014 (Local Time) from KSOP Reporting Station
Broken Clouds Broken Clouds  
Wind Chill: 18°   Ceiling: 11000
Heat Index: 18°   Visibility: 10mi
Dew Point: -13°   Wind: 12mph
Humidity: 11%   Direction: 220°SW
Pressure: 29.9"   Gusts: NA
Location:  35.3°N, 79.75°W
Report Text: KSOP 250155Z AUTO 22010KT 10SM BKN110 18/M13 A2990 RMK AO1
Loading
Personal Weather Stations






























Interactive Weather Map New forecast layout! Learn more

10-Day Weather Forecast

Advertisements
Track Severe Weather on mobile